Latest Coastal Weather Observations for Karratha

IDW60701

Issued at 2:23 am WST Saturday 25 November 2017 (issued every 10 minutes, with the page automatically refreshed every 10 minutes)

About coastal observations | Map of coastal stations | Coastal observations for WA | Marine services | Other Formats
Station Details ID: 004083 Name: KARRATHA AERO Lat: -20.71 Lon: 116.77 Height: 5.3 m
Data from the previous 72 hours. | See also: Recent months at Karratha
Date/Time
WST
Temp
°C
Wind Pressure Rain since
9am
mm
Weather Cloud Vis
km
Sea
Height
m
Swell
Dir  Spd
kts
Gust
kts
hPa Trend Height
m
Period
s
Dir
25/02:00am 26.1 SW 6 8 1006.8 - 0.0 - - 10 - - - -
25/01:30am 27.0 WSW 11 13 1006.9 - 0.0 - - 10 - - - -
25/01:00am 27.3 W 13 15 1007.2 - 0.0 - - 10 - - - -
25/12:30am 27.3 W 13 15 1007.6 - 0.0 - Partly cloudy 10 - - - -
25/12:00am 27.4 W 12 14 1007.6 - 0.0 - Mostly clear 10 - - - -
 
Date/Time
WST
Temp
°C
Wind Pressure Rain since
9am
mm
Weather Cloud Vis
km
Sea
Height
m
Swell
Dir  Spd
kts
Gust
kts
hPa Trend Height
m
Period
s
Dir
24/11:30pm 27.5 W 11 13 1008.0 - 0.0 - Partly cloudy 10 - - - -
24/11:00pm 27.7 W 11 14 1008.3 - 0.0 - Partly cloudy 10 - - - -
24/10:30pm 27.7 W 14 16 1008.0 - 0.0 - - 10 - - - -
24/10:00pm 27.9 W 13 16 1007.9 - 0.0 - Partly cloudy 10 - - - -
24/09:30pm 27.9 WNW 12 15 1008.0 - 0.0 - - 10 - - - -
24/09:00pm 27.8 WNW 11 14 1008.1 - 0.0 - - 10 - - - -
24/08:30pm 27.9 WNW 10 14 1007.8 - 0.0 - - 10 - - - -
24/08:00pm 28.2 WNW 10 13 1007.7 - 0.0 - - 10 - - - -
24/07:30pm 28.5 NW 9 12 1007.5 - 0.0 - - 10 - - - -
24/07:00pm 28.9 NW 9 12 1006.9 - 0.0 - - 10 - - - -
24/06:30pm 29.2 NNW 11 13 1006.3 - 0.0 - - 10 - - - -
24/06:00pm 29.9 NNW 12 16 1005.8 - 0.0 - - 10 - - - -
24/05:30pm 30.7 NNW 11 16 1005.4 - 0.0 - - 10 - - - -
24/05:00pm 30.9 NNW 10 13 1005.4 - 0.0 - - 10 - - - -
24/04:30pm 31.7 NNW 10 13 1005.3 - 0.0 - - 10 - - - -
24/04:00pm 32.2 NNW 11 14 1005.4 - 0.0 - - 10 - - - -
24/03:30pm 33.1 NNW 12 16 1005.6 - 0.0 - - 10 - - - -
24/03:00pm 33.8 NNW 10 14 1005.7 - 0.0 - - 10 - - - -
24/02:30pm 32.7 NNW 11 15 1005.8 - 0.0 - - 10 - - - -
24/02:00pm 33.5 NNW 9 15 1005.9 - 0.0 - - 10 - - - -
24/01:30pm 33.7 NE 10 14 1006.0 - 0.0 - - 10 - - - -
24/01:00pm 33.2 NE 11 13 1006.4 - 0.0 - - 10 - - - -
24/12:30pm 34.0 NE 11 14 1006.5 - 0.0 - - 10 - - - -
24/12:00pm 34.4 NE 12 15 1006.6 - 0.0 - - 10 - - - -
24/11:30am 34.0 NE 10 12 1006.9 - 0.0 - - 10 - - - -
24/11:00am 32.6 NE 8 11 1007.3 - 0.0 - - 10 - - - -
24/10:30am 32.5 NE 9 13 1007.3 - 0.0 - - 10 - - - -
24/10:00am 32.1 NE 10 13 1007.4 - 0.0 - - 10 - - - -
24/09:30am 31.6 ENE 9 13 1007.5 - 0.0 - - 10 - - - -
24/09:00am 30.6 ENE 9 13 1007.4 - 0.0 - - 10 - - - -
24/08:30am 30.7 NE 8 11 1007.4 - 0.0 - - 10 - - - -
24/08:00am 30.0 ENE 6 9 1007.1 - 0.0 - - 10 - - - -
24/07:30am 30.0 ENE 6 8 1006.8 - 0.0 - - 10 - - - -
24/07:00am 29.2 NNW 1 5 1006.6 - 0.0 - - 10 - - - -
24/06:30am 28.1 N 1 4 1006.2 - 0.0 - - 10 - - - -
24/06:00am 26.7 N 3 4 1005.8 - 0.0 - Mostly clear 10 - - - -
24/05:30am 26.1 N 5 7 1005.3 - 0.0 - - 10 - - - -
24/05:00am 26.2 NNW 5 6 1004.7 - 0.0 - - 10 - - - -
24/04:30am 25.0 CALM 0 0 1004.6 - 0.0 - - 10 - - - -
24/04:00am 25.7 CALM 0 0 1004.5 - 0.0 - - 10 - - - -
24/03:30am 24.8 CALM 0 3 1004.6 - 0.0 - - 10 - - - -
24/03:00am 25.9 SW 4 5 1004.4 - 0.0 - Mostly clear 10 - - - -
24/02:30am 25.6 SW 5 6 1004.5 - 0.0 - - 10 - - - -
24/02:00am 26.3 SW 5 6 1004.5 - 0.0 - - 10 - - - -
24/01:30am 26.8 SW 7 8 1004.7 - 0.0 - - 10 - - - -
24/01:00am 26.5 SW 7 9 1004.8 - 0.0 - - 10 - - - -
24/12:30am 26.6 SW 9 11 1005.2 - 0.0 - - 10 - - - -
24/12:00am 26.8 SW 12 15 1005.1 - 0.0 - - 10 - - - -
 
Date/Time
WST
Temp
°C
Wind Pressure Rain since
9am
mm
Weather Cloud Vis
km
Sea
Height
m
Swell
Dir  Spd
kts
Gust
kts
hPa Trend Height
m
Period
s
Dir
23/11:30pm 27.8 WSW 12 15 1005.5 - 0.0 - - 10 - - - -
23/11:00pm 27.7 WNW 11 13 1005.1 - 0.0 - - 10 - - - -
23/10:30pm 28.0 WNW 10 13 1005.2 - 0.0 - - 10 - - - -
23/10:00pm 28.2 WNW 9 11 1005.2 - 0.0 - - 10 - - - -
23/09:30pm 28.6 W 7 10 1005.4 - 0.0 - - 10 - - - -
23/09:00pm 28.9 NW 9 12 1004.8 - 0.0 - - 10 - - - -
23/08:30pm 29.0 NW 11 15 1004.6 - 0.0 - - 10 - - - -
23/08:00pm 29.1 NW 12 15 1004.4 - 0.0 - - 10 - - - -
23/07:30pm 29.8 NW 11 15 1004.1 - 0.0 - - 10 - - - -
23/07:00pm 30.0 NW 13 17 1003.8 - 0.0 - - 10 - - - -
23/06:30pm 30.3 NNW 13 16 1003.6 - 0.0 - - 10 - - - -
23/06:00pm 30.7 NNW 13 17 1003.3 - 0.0 - - 10 - - - -
23/05:30pm 30.9 NNW 12 15 1003.2 - 0.0 - - 10 - - - -
23/05:00pm 31.4 NNW 10 14 1003.2 - 0.0 - - 10 - - - -
23/04:30pm 31.7 NNW 12 16 1003.0 - 0.0 - - 10 - - - -
23/04:00pm 32.6 NNW 11 15 1002.9 - 0.0 - - 10 - - - -
23/03:30pm 33.3 NNW 12 16 1003.0 - 0.0 - - 10 - - - -
23/03:00pm 34.3 NNW 11 15 1003.2 - 0.0 - - 10 - - - -
23/02:30pm 33.7 NNW 11 13 1003.3 - 0.0 - - 10 - - - -
23/02:00pm 36.3 NNE 14 18 1003.4 - 0.0 - - 10 - - - -
23/01:30pm 35.1 NNE 18 23 1003.6 - 0.0 - - 10 - - - -
23/01:00pm 33.8 NNE 16 20 1004.1 - 0.0 - - 10 - - - -
23/12:30pm 32.0 NNE 15 21 1004.5 - 0.0 - - 10 - - - -
23/12:00pm 32.0 NE 18 21 1004.6 - 0.0 - - 10 - - - -
23/11:30am 32.1 NE 18 22 1004.9 - 0.0 - - 10 - - - -
23/11:00am 30.8 NE 19 23 1005.2 - 0.0 - - 10 - - - -
23/10:30am 30.9 NE 19 22 1005.5 - 0.0 - - 10 - - - -
23/10:00am 31.1 NE 19 24 1005.5 - 0.0 - - 10 - - - -
23/09:30am 30.2 NE 19 23 1005.7 - 0.0 - - 10 - - - -
23/09:00am 29.8 NE 18 22 1005.7 - 0.0 - - 10 - - - -
23/08:30am 30.1 ENE 18 23 1005.6 - 0.0 - - 10 - - - -
23/08:00am 29.5 ENE 17 20 1005.5 - 0.0 - - 10 - - - -
23/07:30am 29.2 ENE 17 21 1005.2 - 0.0 - - 10 - - - -
23/07:00am 28.1 E 13 17 1004.8 - 0.0 - - 10 - - - -
23/06:30am 27.0 E 13 15 1004.4 - 0.0 - - 10 - - - -
23/06:00am 26.5 E 8 12 1004.1 - 0.0 - - 10 - - - -
23/05:30am 24.2 ESE 6 7 1003.6 - 0.0 - - 10 - - - -
23/05:00am 24.6 SE 5 6 1003.1 - 0.0 - - 10 - - - -
23/04:30am 24.7 SE 4 5 1002.6 - 0.0 - - 10 - - - -
23/04:00am 24.9 SSE 3 4 1002.3 - 0.0 - - 10 - - - -
23/03:30am 25.8 WSW 1 3 1002.2 - 0.0 - - 10 - - - -
23/03:00am 27.5 W 5 6 1002.1 - 0.0 - - 10 - - - -
23/02:30am 27.6 WSW 5 7 1002.1 - 0.0 - - 10 - - - -
23/02:00am 28.3 WSW 10 12 1002.0 - 0.0 - - 10 - - - -
23/01:30am 28.6 W 11 13 1001.8 - 0.0 - - 10 - - - -
23/01:00am 29.2 W 9 11 1002.2 - 0.0 - - 10 - - - -
23/12:30am 29.7 W 13 15 1002.4 - 0.0 - - 10 - - - -
23/12:00am 29.9 W 13 15 1002.9 - 0.0 - - 10 - - - -
 
Date/Time
WST
Temp
°C
Wind Pressure Rain since
9am
mm
Weather Cloud Vis
km
Sea
Height
m
Swell
Dir  Spd
kts
Gust
kts
hPa Trend Height
m
Period
s
Dir
22/11:30pm 29.3 WNW 11 13 1003.2 - 0.0 - - 10 - - - -
22/11:00pm 29.4 WNW 12 15 1003.6 - 0.0 - - 10 - - - -
22/10:30pm 29.3 WNW 9 12 1003.9 - 0.0 - - 10 - - - -
22/10:00pm 29.8 WNW 9 11 1004.1 - 0.0 - - 10 - - - -
22/09:30pm 31.2 W 11 13 1004.0 - 0.0 - - 10 - - - -
22/09:00pm 30.7 WNW 8 10 1004.0 - 0.0 - - 10 - - - -
22/08:30pm 31.3 W 9 11 1004.0 - 0.0 - - 10 - - - -
22/08:00pm 31.3 W 11 13 1003.8 - 0.0 - - 10 - - - -
22/07:30pm 33.2 W 10 14 1003.4 - 0.0 - - 10 - - - -
22/07:00pm 33.9 W 10 12 1003.2 - 0.0 - - 10 - - - -
22/06:30pm 34.0 WNW 10 12 1002.9 - 0.0 - - 10 - - - -
22/06:00pm 34.7 WNW 11 13 1002.6 - 0.0 - - 10 - - - -
22/05:30pm 35.4 WNW 10 12 1002.3 - 0.0 - - 10 - - - -
22/05:00pm 35.7 NW 11 13 1002.1 - 0.0 - - 10 - - - -
22/04:30pm 36.4 NNW 10 13 1002.0 - 0.0 - - 10 - - - -
22/04:00pm 36.4 NNW 11 14 1001.9 - 0.0 - - 10 - - - -
22/03:30pm 37.4 NNW 12 16 1002.0 - 0.0 - - 10 - - - -
22/03:00pm 38.1 NNW 10 13 1002.0 - 0.0 - - 10 - - - -
22/02:30pm 38.5 NNE 14 18 1002.0 - 0.0 - - 10 - - - -
22/02:00pm 38.9 NNE 14 17 1002.0 - 0.0 - - 10 - - - -
22/01:30pm 38.9 NNE 13 17 1002.4 - 0.0 - - 10 - - - -
22/01:00pm 39.1 NNE 13 17 1002.7 - 0.0 - - 10 - - - -
22/12:30pm 37.7 NNE 12 16 1002.9 - 0.0 - - 10 - - - -
22/12:00pm 39.5 NE 12 15 1003.2 - 0.0 - - 10 - - - -
22/11:30am 39.0 NNE 11 14 1003.4 - 0.0 - - 10 - - - -
22/11:00am 38.7 NE 11 14 1004.0 - 0.0 - - 10 - - - -
22/10:30am 39.5 NE 11 13 1004.4 - 0.0 - - 10 - - - -
22/10:00am 39.8 ENE 13 17 1004.6 - 0.0 - - 10 - - - -
22/09:30am 39.9 ESE 13 19 1004.9 - 0.0 - - 10 - - - -
22/09:00am 38.6 ESE 15 19 1005.1 - 0.0 - - 10 - - - -
22/08:30am 37.5 SE 10 15 1005.2 - 0.0 - - 10 - - - -
22/08:00am 33.7 S 7 10 1005.4 - 0.0 - - 10 - - - -
22/07:30am 29.1 WSW 6 8 1005.4 - 0.0 - - 10 - - - -
22/07:00am 27.7 WSW 8 9 1005.3 - 0.0 - - 10 - - - -
22/06:30am 27.0 WSW 8 9 1005.2 - 0.0 - - 10 - - - -
22/06:00am 25.3 WSW 5 7 1004.8 - 0.0 - - 10 - - - -
22/05:30am 25.8 WSW 8 10 1004.6 - 0.0 - - 10 - - - -
22/05:00am 26.3 W 11 14 1004.4 - 0.0 - - 10 - - - -
22/04:30am 26.3 W 13 16 1004.2 - 0.0 - - 10 - - - -
22/04:00am 26.5 W 14 16 1004.2 - 0.0 - - 10 - - - -
22/03:30am 26.5 W 14 18 1004.2 - 0.0 - - 10 - - - -
22/03:00am 26.5 W 14 17 1004.4 - 0.0 - - 10 - - - -
22/02:30am 26.6 W 16 19 1004.4 - 0.0 - - 10 - - - -

Other Formats:

Comma delimited format used in spreadsheet applications
http://www.bom.gov.au/fwo/IDW60701/IDW60701.95307.axf

JavaScript Object Notation format (JSON) in row-major order
http://www.bom.gov.au/fwo/IDW60701/IDW60701.95307.json